Time;durP1;ratioP1;P1;durP2;ratioP2;P2;SDS_P1;SDS_P2;PMS_P1;PMS_P2;Temp;Humidity;BMP_temperature;BMP_pressure;BME280_temperature;BME280_humidity;BME280_pressure;Samples;Min_cycle;Max_cycle;Signal;HPM_P1;HPM_P2
2021/01/05 00:00:21;;;;;;;11.87;9.77;;;4.30;99.90;;;;;;5018473;28;20473;-85
2021/01/05 00:02:48;;;;;;;12.27;9.77;;;4.30;99.90;;;;;;5034796;28;20919;-85
2021/01/05 00:05:15;;;;;;;12.73;9.70;;;4.20;99.90;;;;;;5033903;28;20834;-83
2021/01/05 00:07:43;;;;;;;14.10;9.87;;;4.20;99.90;;;;;;5032363;28;20453;-85
2021/01/05 00:10:11;;;;;;;13.90;9.93;;;4.10;99.90;;;;;;5032456;28;20450;-85
2021/01/05 00:12:42;;;;;;;10.87;9.70;;;4.10;99.90;;;;;;5032006;28;20477;-85
2021/01/05 00:15:12;;;;;;;11.50;10.20;;;4.20;99.90;;;;;;5018339;23;20452;-85
2021/01/05 00:17:39;;;;;;;11.07;9.67;;;4.20;99.90;;;;;;5029899;28;20421;-85
2021/01/05 00:20:13;;;;;;;14.10;9.60;;;4.30;99.90;;;;;;5031231;28;20540;-85
2021/01/05 00:22:44;;;;;;;10.07;8.90;;;4.30;99.90;;;;;;5014778;28;20460;-85
2021/01/05 00:25:13;;;;;;;11.87;9.67;;;4.30;99.90;;;;;;5031757;28;20501;-85
2021/01/05 00:27:40;;;;;;;11.93;9.87;;;4.20;99.90;;;;;;5014428;28;20441;-85
2021/01/05 00:30:17;;;;;;;11.63;10.43;;;4.30;99.90;;;;;;5032116;28;20461;-85
2021/01/05 00:32:45;;;;;;;10.90;9.77;;;4.10;99.90;;;;;;5015125;28;20473;-85
2021/01/05 00:35:27;;;;;;;14.07;10.77;;;4.20;99.90;;;;;;5032092;28;20464;-85
2021/01/05 00:37:58;;;;;;;10.87;9.73;;;4.10;99.90;;;;;;5031789;28;20460;-85
2021/01/05 00:40:27;;;;;;;11.47;9.83;;;4.10;99.90;;;;;;5031429;28;20476;-85
2021/01/05 00:42:55;;;;;;;10.97;8.97;;;4.10;99.90;;;;;;5031431;28;20438;-84
2021/01/05 00:45:24;;;;;;;10.83;9.73;;;4.20;99.90;;;;;;5031626;28;20488;-85
2021/01/05 00:47:52;;;;;;;11.57;10.37;;;4.10;99.90;;;;;;5023223;28;20429;-85
2021/01/05 00:50:22;;;;;;;11.40;10.20;;;4.00;99.90;;;;;;5031463;28;20461;-85
2021/01/05 00:52:50;;;;;;;13.10;9.83;;;4.10;99.90;;;;;;5031565;28;20499;-85
2021/01/05 00:55:18;;;;;;;11.53;9.97;;;4.10;99.90;;;;;;5014921;28;20449;-85
2021/01/05 00:57:48;;;;;;;9.70;8.70;;;4.10;99.90;;;;;;5032536;28;20452;-85
2021/01/05 01:00:20;;;;;;;11.43;9.60;;;4.10;99.90;;;;;;5031486;28;20548;-84
2021/01/05 01:02:49;;;;;;;11.10;9.93;;;4.00;99.90;;;;;;5030361;28;20450;-85
2021/01/05 01:05:23;;;;;;;12.23;9.40;;;4.10;99.90;;;;;;5031720;28;20481;-85
2021/01/05 01:07:49;;;;;;;12.70;10.03;;;4.10;99.90;;;;;;5031685;28;20437;-85
2021/01/05 01:10:19;;;;;;;12.00;10.47;;;4.20;99.90;;;;;;5031242;28;20453;-85
2021/01/05 01:12:47;;;;;;;10.83;9.73;;;4.20;99.90;;;;;;5030713;28;20460;-85
2021/01/05 01:15:17;;;;;;;11.53;10.43;;;4.20;99.90;;;;;;5029843;28;20477;-85
2021/01/05 01:17:47;;;;;;;11.10;9.77;;;4.20;99.90;;;;;;5030156;28;20447;-85
2021/01/05 01:20:18;;;;;;;10.10;9.10;;;4.10;99.90;;;;;;5013335;28;20480;-84
2021/01/05 01:22:45;;;;;;;10.53;9.30;;;4.20;99.90;;;;;;5030259;28;20436;-85
2021/01/05 01:25:15;;;;;;;13.27;10.83;;;4.20;99.90;;;;;;5030221;28;20480;-85
2021/01/05 01:27:47;;;;;;;13.30;10.17;;;4.40;99.90;;;;;;5012964;28;20449;-85
2021/01/05 01:30:17;;;;;;;10.17;8.97;;;4.30;99.90;;;;;;5029937;28;20448;-85
2021/01/05 01:32:47;;;;;;;10.90;9.90;;;4.20;99.90;;;;;;5030195;28;20460;-85
2021/01/05 01:35:17;;;;;;;13.73;10.27;;;4.30;99.90;;;;;;5030251;28;20473;-85
2021/01/05 01:37:47;;;;;;;11.50;10.27;;;4.20;99.90;;;;;;5013680;28;20481;-85
2021/01/05 01:40:21;;;;;;;12.03;10.40;;;4.20;99.90;;;;;;5031579;28;20469;-85
2021/01/05 01:42:49;;;;;;;10.00;8.97;;;4.30;99.90;;;;;;5032872;28;20476;-85
2021/01/05 01:45:29;;;;;;;10.53;9.43;;;4.20;99.90;;;;;;5033331;28;20488;-85
2021/01/05 01:47:58;;;;;;;10.63;9.53;;;4.20;99.90;;;;;;5032475;28;20473;-85
2021/01/05 01:50:29;;;;;;;13.20;10.10;;;4.20;99.90;;;;;;5033017;28;20446;-83
2021/01/05 01:53:46;;;;;;;13.13;9.90;;;4.20;99.90;;;;;;5032587;28;20438;-85
2021/01/05 01:56:38;;;;;;;10.97;9.83;;;4.30;99.90;;;;;;4952777;29;20530;-85
2021/01/05 01:59:21;;;;;;;11.17;10.07;;;4.30;99.90;;;;;;5031189;28;20457;-85
2021/01/05 02:01:59;;;;;;;12.60;10.47;;;4.30;99.90;;;;;;5032361;28;20493;-85
2021/01/05 02:04:51;;;;;;;9.83;8.83;;;4.20;99.90;;;;;;5033403;28;20437;-85
2021/01/05 02:07:48;;;;;;;10.30;9.30;;;4.10;99.90;;;;;;5015257;28;20441;-85
2021/01/05 02:10:38;;;;;;;10.73;9.67;;;4.20;99.90;;;;;;5032341;28;20479;-85
2021/01/05 02:13:23;;;;;;;11.57;10.33;;;4.30;99.90;;;;;;5030963;28;20453;-85
2021/01/05 02:16:05;;;;;;;11.10;9.97;;;4.30;99.90;;;;;;5015285;28;20481;-85
2021/01/05 02:18:44;;;;;;;11.63;10.43;;;4.30;99.90;;;;;;5031840;28;20445;-85
2021/01/05 02:21:23;;;;;;;11.40;9.80;;;4.30;99.90;;;;;;5014067;28;20480;-85
2021/01/05 02:24:20;;;;;;;12.50;10.20;;;4.30;99.90;;;;;;5032579;28;20453;-84
2021/01/05 02:26:55;;;;;;;11.60;10.40;;;4.30;99.90;;;;;;5032728;28;20492;-85
2021/01/05 02:29:25;;;;;;;11.10;10.00;;;4.20;99.90;;;;;;5036494;28;20455;-85
2021/01/05 02:32:09;;;;;;;11.87;10.67;;;4.20;99.90;;;;;;5034349;28;20441;-85
2021/01/05 02:34:51;;;;;;;13.70;10.43;;;4.20;99.90;;;;;;5035531;28;20448;-83
2021/01/05 02:37:38;;;;;;;15.83;10.07;;;4.10;99.90;;;;;;5035287;28;20448;-85
2021/01/05 02:40:35;;;;;;;11.80;10.60;;;4.10;99.90;;;;;;5028687;28;20469;-85
2021/01/05 02:43:18;;;;;;;12.27;10.70;;;4.00;99.90;;;;;;5033317;28;20432;-85
2021/01/05 02:46:01;;;;;;;12.87;10.63;;;4.10;99.90;;;;;;5033927;28;20472;-85
2021/01/05 02:48:43;;;;;;;13.50;10.53;;;4.10;99.90;;;;;;5016534;28;20469;-85
2021/01/05 02:51:44;;;;;;;11.40;10.20;;;4.10;99.90;;;;;;5033985;28;21015;-85
2021/01/05 02:54:41;;;;;;;11.07;9.80;;;4.20;99.90;;;;;;5016269;28;20448;-85
2021/01/05 02:57:36;;;;;;;10.97;9.70;;;4.30;99.90;;;;;;5033688;28;20473;-85
2021/01/05 03:03:50;;;;;;;12.90;10.33;;;4.40;99.90;;;;;;5011763;28;974478;-85
2021/01/05 03:06:37;;;;;;;12.63;10.77;;;4.40;99.90;;;;;;5086837;28;20220;-85
2021/01/05 03:09:45;;;;;;;11.43;9.77;;;4.30;99.90;;;;;;5128292;28;20437;-85
2021/01/05 03:12:45;;;;;;;14.23;10.37;;;4.10;99.90;;;;;;5126606;28;20461;-85
2021/01/05 03:15:27;;;;;;;12.27;10.97;;;4.40;99.90;;;;;;5109648;28;20457;-85
2021/01/05 03:18:02;;;;;;;13.60;10.70;;;4.40;99.90;;;;;;5127963;28;20515;-85
2021/01/05 03:20:33;;;;;;;12.43;10.63;;;4.30;99.90;;;;;;5127944;28;20441;-85
2021/01/05 03:23:04;;;;;;;15.53;11.87;;;4.30;99.90;;;;;;5126648;28;20480;-85
2021/01/05 03:25:36;;;;;;;12.90;11.47;;;4.30;99.90;;;;;;5127436;28;20468;-85
2021/01/05 03:28:07;;;;;;;12.57;11.37;;;4.30;99.90;;;;;;5127662;28;20456;-85
2021/01/05 03:30:37;;;;;;;12.40;10.90;;;4.40;99.90;;;;;;5128880;28;20460;-85
2021/01/05 03:33:05;;;;;;;12.70;10.97;;;4.40;99.90;;;;;;5127564;28;20452;-85
2021/01/05 03:35:34;;;;;;;15.20;13.60;;;4.40;99.90;;;;;;5126466;28;20437;-85
2021/01/05 03:38:02;;;;;;;13.37;11.93;;;4.30;99.90;;;;;;5126881;28;20189;-85
2021/01/05 03:40:31;;;;;;;13.63;11.60;;;4.40;99.90;;;;;;5126953;28;20855;-85
2021/01/05 03:42:57;;;;;;;12.53;11.00;;;4.30;99.90;;;;;;5126417;28;20539;-85
2021/01/05 03:45:26;;;;;;;14.97;12.13;;;4.30;99.90;;;;;;5127968;28;20472;-84
2021/01/05 03:47:54;;;;;;;14.00;11.40;;;4.20;99.90;;;;;;5152744;22;20847;-85
2021/01/05 03:50:21;;;;;;;14.13;11.53;;;4.20;99.90;;;;;;5085885;28;20443;-85
2021/01/05 03:52:51;;;;;;;15.67;12.70;;;4.30;99.90;;;;;;5087225;28;20454;-85
2021/01/05 03:55:20;;;;;;;14.57;11.80;;;4.30;99.90;;;;;;5069956;28;20482;-85
2021/01/05 03:57:49;;;;;;;15.53;12.63;;;4.20;99.90;;;;;;5086803;28;20469;-84
2021/01/05 04:00:24;;;;;;;14.43;12.10;;;4.10;99.90;;;;;;5085942;28;20478;-85
2021/01/05 04:02:52;;;;;;;15.77;12.47;;;4.20;99.90;;;;;;5086276;28;20466;-85
2021/01/05 04:05:19;;;;;;;14.93;12.50;;;4.20;99.90;;;;;;5085730;28;20918;-85
2021/01/05 04:07:50;;;;;;;16.73;13.37;;;4.20;99.90;;;;;;5125950;22;20485;-85
2021/01/05 04:10:17;;;;;;;15.63;13.03;;;4.30;99.90;;;;;;5106261;28;20458;-85
2021/01/05 04:12:45;;;;;;;15.47;13.33;;;4.40;99.90;;;;;;5103226;28;20458;-85
2021/01/05 04:15:18;;;;;;;15.50;12.53;;;4.30;99.90;;;;;;5092758;28;20474;-85
2021/01/05 04:17:45;;;;;;;14.00;12.00;;;4.20;99.90;;;;;;5091727;28;20464;-85
2021/01/05 04:20:14;;;;;;;15.07;13.10;;;4.20;99.90;;;;;;5092053;28;20426;-84
2021/01/05 04:22:46;;;;;;;16.70;13.23;;;4.30;99.90;;;;;;5092339;28;20479;-85
2021/01/05 04:25:17;;;;;;;17.27;14.23;;;4.40;99.90;;;;;;5092823;28;20459;-85
2021/01/05 04:27:44;;;;;;;14.73;13.20;;;4.40;99.90;;;;;;5092718;28;20902;-85
2021/01/05 04:30:19;;;;;;;16.03;13.40;;;4.30;99.90;;;;;;5091810;28;20509;-85
2021/01/05 04:32:47;;;;;;;15.97;14.17;;;4.30;99.90;;;;;;5091816;28;20422;-85
2021/01/05 04:35:17;;;;;;;18.83;14.70;;;4.30;99.90;;;;;;5099677;22;20489;-85
2021/01/05 04:37:49;;;;;;;19.42;17.33;;;4.30;99.90;;;;;;5094203;28;20466;-84
2021/01/05 04:40:38;;;;;;;17.43;14.50;;;4.20;99.90;;;;;;5093529;28;20297;-85
2021/01/05 04:43:21;;;;;;;16.33;14.50;;;4.20;99.90;;;;;;5093968;28;20909;-85
2021/01/05 04:45:58;;;;;;;16.73;13.90;;;4.30;99.90;;;;;;5077914;28;20462;-84
2021/01/05 04:48:37;;;;;;;17.60;14.47;;;4.30;99.90;;;;;;5077851;28;20955;-85
2021/01/05 04:51:16;;;;;;;18.67;14.20;;;4.20;99.90;;;;;;5077394;28;20489;-85
2021/01/05 04:53:50;;;;;;;17.60;14.30;;;4.20;99.90;;;;;;5111900;22;20495;-84
2021/01/05 04:59:07;;;;;;;16.73;13.77;;;4.00;99.90;;;;;;5056869;28;20502;-86
2021/01/05 05:01:51;;;;;;;15.77;12.27;;;4.00;99.90;;;;;;5058893;28;20448;-86
2021/01/05 05:04:40;;;;;;;19.63;14.70;;;4.10;99.90;;;;;;5059304;28;20437;-86
2021/01/05 05:07:44;;;;;;;16.57;13.50;;;4.00;99.90;;;;;;5106339;22;20483;-85
2021/01/05 05:10:52;;;;;;;17.27;13.60;;;4.00;99.90;;;;;;5118671;22;20534;-85
2021/01/05 05:17:17;;;;;;;17.77;13.90;;;4.00;99.90;;;;;;5105860;22;20907;-84
2021/01/05 05:19:59;;;;;;;18.67;13.47;;;4.10;99.90;;;;;;5054980;28;20464;-85
2021/01/05 05:22:36;;;;;;;17.67;14.40;;;4.00;99.90;;;;;;5073739;28;20505;-85
2021/01/05 05:28:36;;;;;;;19.10;14.47;;;4.20;99.90;;;;;;5055451;28;20443;-86
2021/01/05 05:31:08;;;;;;;17.70;13.50;;;4.20;99.90;;;;;;5076393;28;20447;-85
2021/01/05 05:33:50;;;;;;;18.73;13.80;;;4.20;99.90;;;;;;5076720;28;20427;-85
2021/01/05 05:36:45;;;;;;;17.83;14.03;;;4.20;99.90;;;;;;5075568;28;20455;-85
2021/01/05 05:42:38;;;;;;;18.20;13.93;;;4.30;99.90;;;;;;5071696;28;20502;-85
2021/01/05 05:45:15;;;;;;;15.57;12.27;;;4.00;99.90;;;;;;5074829;28;20432;-85
2021/01/05 05:47:54;;;;;;;16.27;13.07;;;4.20;99.90;;;;;;5074503;28;20447;-85
2021/01/05 05:50:25;;;;;;;15.17;12.43;;;4.20;99.90;;;;;;5074383;28;20439;-85
2021/01/05 05:52:57;;;;;;;16.30;12.73;;;4.20;99.90;;;;;;5073917;28;20452;-85
2021/01/05 05:55:40;;;;;;;15.07;12.27;;;4.30;99.90;;;;;;5055192;28;20471;-85
2021/01/05 05:58:10;;;;;;;18.13;12.80;;;4.30;99.90;;;;;;5073354;28;20439;-85
2021/01/05 06:00:47;;;;;;;19.03;14.43;;;4.20;99.90;;;;;;5074659;28;20451;-85
2021/01/05 06:03:21;;;;;;;17.27;13.37;;;4.20;99.90;;;;;;5074585;28;20475;-85
2021/01/05 06:05:48;;;;;;;19.77;14.77;;;4.20;99.90;;;;;;5073752;28;20436;-85
2021/01/05 06:08:25;;;;;;;22.67;16.77;;;4.30;99.90;;;;;;5072864;28;20933;-85
2021/01/05 06:10:54;;;;;;;23.43;16.27;;;4.30;99.90;;;;;;5074487;28;20515;-85
2021/01/05 06:13:22;;;;;;;20.13;15.13;;;4.30;99.90;;;;;;5056380;28;20440;-85
2021/01/05 06:15:56;;;;;;;22.13;16.23;;;4.40;99.90;;;;;;5081432;22;20526;-84
2021/01/05 06:18:29;;;;;;;28.03;16.77;;;4.20;99.90;;;;;;5074103;28;20449;-86
2021/01/05 06:23:40;;;;;;;23.93;14.90;;;4.20;99.90;;;;;;5058919;28;20447;-85
2021/01/05 06:26:09;;;;;;;19.17;14.50;;;4.10;99.90;;;;;;5074028;28;20467;-86
2021/01/05 06:28:36;;;;;;;19.30;13.80;;;4.00;99.90;;;;;;5074130;28;20504;-85
2021/01/05 06:31:07;;;;;;;21.27;14.53;;;4.10;99.90;;;;;;5074735;28;20464;-85
2021/01/05 06:40:00;;;;;;;20.10;15.37;;;4.10;99.90;;;;;;5287138;22;21025;-86
2021/01/05 06:43:24;;;;;;;19.57;14.17;;;4.40;99.90;;;;;;5244499;22;20491;-85
2021/01/05 06:49:41;;;;;;;23.63;16.20;;;4.50;99.90;;;;;;5036325;28;20485;-86
